Roosevelt, Minnesota
Current Conditions -  °F | °C
As of 7:34 PM on Thursday 27 Nov 2014 (Local Time) from KRRT Reporting Station
Clear Clear  
Wind Chill: -6°   Ceiling: Unl
Heat Index:   Visibility: 10mi
Dew Point: -2°   Wind: 5mph
Humidity: 78%   Direction: 170°S
Pressure: 30.23"   Gusts: NA
Location:  48.8°N, 95.1°W
Report Text: KRRT 280134Z AUTO 17004KT 10SM CLR M16/M19 A3023 RMK AO2
Loading
Personal Weather Stations






























Interactive Weather Map New forecast layout! Learn more

10-Day Weather Forecast

Advertisements
Track Severe Weather on mobile